Date,TemperatureHighF,TemperatureAvgF,TemperatureLowF,DewpointHighF,DewpointAvgF,DewpointLowF,HumidityHigh,HumidityAvg,HumidityLow,PressureMaxIn,PressureMinIn,WindSpeedMaxMPH,WindSpeedAvgMPH,GustSpeedMaxMPH,PrecipitationSumIn
2013-1-1,27,20,12,21,11,6,85,70,56,30.19,30.06,12,-7,13,0.00
2013-1-2,25,22,15,19,17,11,87,81,75,30.24,30.12,15,-10,15,0.00
2013-1-3,28,24,15,25,20,9,90,84,75,30.21,30.10,16,-10,17,0.00
2013-1-4,30,26,22,24,20,18,90,78,67,30.23,30.06,25,-7,25,0.00
2013-1-5,32,27,18,30,24,16,94,87,74,30.33,30.03,16,-5,16,0.00
2013-1-6,35,32,31,32,29,26,94,87,80,30.31,29.94,17,-8,17,0.03
2013-1-7,34,31,28,26,24,22,84,78,70,30.41,30.18,23,-4,23,0.00
2013-1-8,36,30,23,28,26,20,90,82,72,30.28,30.18,12,-5,13,0.00
2013-1-9,46,38,29,34,28,23,91,68,44,30.51,30.10,32,-1,32,0.00
2013-1-10,40,34,22,33,28,21,95,80,61,30.60,30.16,18,-4,18,0.13
2013-1-11,57,47,34,52,45,33,99,92,77,30.16,29.78,17,-9,17,0.57
2013-1-12,60,52,43,51,48,41,98,88,73,29.95,29.83,14,-10,15,0.09
2013-1-13,43,35,27,41,34,24,98,97,88,30.09,29.78,18,-6,18,0.59
2013-1-14,27,20,14,24,16,12,93,83,75,30.48,30.09,18,-8,19,0.00
2013-1-15,29,23,11,21,18,10,94,82,66,30.49,30.16,6,-8,6,0.00
2013-1-16,37,30,17,28,21,14,94,69,41,30.16,29.85,24,-3,26,0.00
2013-1-17,34,27,17,29,18,7,86,68,56,30.38,30.02,23,-3,23,0.00
2013-1-18,34,27,13,24,18,8,86,68,54,30.48,29.99,29,-3,29,0.00
2013-1-19,46,42,33,36,31,24,74,66,56,30.00,29.57,37,-10,37,0.00
2013-1-20,42,20,14,28,9,4,72,63,43,30.21,29.58,46,0,46,0.00
2013-1-21,14,10,2,11,3,-5,88,74,58,30.18,30.01,20,-4,21,0.00
2013-1-22,9,5,-4,3,-3,-9,84,70,57,30.36,30.18,21,-7,22,0.00
2013-1-23,16,11,4,9,6,-2,88,77,67,30.36,30.14,15,-9,15,0.00
2013-1-24,18,12,7,10,3,-3,88,67,44,30.65,30.20,14,-15,14,0.00
2013-1-25,20,17,12,16,13,4,91,84,71,30.53,30.07,13,-6,14,0.00
2013-1-26,26,20,14,17,14,12,92,78,60,30.51,30.11,13,-7,13,0.00
2013-1-27,30,23,11,28,18,8,95,81,62,30.52,30.14,25,-3,25,0.00
2013-1-28,46,38,30,45,38,28,99,98,93,30.15,29.89,14,-6,15,0.29
2013-1-29,54,50,33,54,50,33,100,100,98,30.02,29.65,18,-18,18,0.64
2013-1-30,53,45,28,51,43,22,99,93,77,29.35,29.12,31,-9,32,0.14
2013-1-31,28,19,14,21,13,10,92,78,63,29.94,29.31,31,4,37,0.00
2013-2-1,17,13,7,11,7,1,89,76,63,30.33,29.94,23,-7,23,0.00
2013-2-2,22,15,4,19,11,2,91,84,78,30.27,30.00,13,-6,13,0.00
2013-2-3,20,14,3,17,9,0,91,80,66,30.08,29.90,19,-5,19,0.00
2013-2-4,22,19,14,18,16,11,91,87,83,30.08,29.92,8,-3,8,0.00
2013-2-5,27,22,10,26,18,8,95,86,68,30.03,29.86,14,-5,14,0.00
2013-2-6,32,24,12,21,17,10,92,73,55,30.34,30.03,15,-6,15,0.00
2013-2-7,38,30,23,29,24,17,94,79,70,30.32,29.86,22,-15,22,0.00
2013-2-8,28,24,14,27,20,12,96,85,72,30.41,29.82,25,0,25,0.00
2013-2-9,32,21,4,19,16,2,94,80,55,30.50,30.30,13,-1,13,0.00
2013-2-10,40,32,20,39,27,18,94,83,65,30.30,29.71,20,-6,20,0.27
2013-2-11,43,35,30,42,29,25,100,79,70,29.92,29.63,32,-60,35,0.00
2013-2-12,31,29,26,25,23,20,82,77,73,30.08,29.91,20,-10,20,0.00
2013-2-13,40,32,25,27,25,20,91,77,56,29.96,29.76,11,-6,11,0.00
2013-2-14,39,34,27,34,30,26,94,86,78,29.89,29.70,28,-2,28,0.00
2013-2-15,32,26,18,27,16,12,82,66,56,30.16,29.89,18,-4,19,0.00
2013-2-16,24,19,13,19,13,7,91,80,54,30.14,30.02,15,-6,16,0.00
2013-2-17,23,16,9,13,7,5,91,70,48,30.26,30.11,14,-37,14,0.00
2013-2-18,47,34,16,39,25,8,83,67,55,30.26,29.59,21,-61,22,0.00
2013-2-19,43,24,16,40,19,10,94,81,68,29.98,29.43,30,-18,30,0.04
2013-2-20,21,19,15,16,12,8,83,74,64,30.30,29.98,17,-2,25,0.00
2013-2-21,25,21,18,18,15,13,87,77,66,30.44,30.27,17,-14,17,0.00
2013-2-22,32,27,20,32,26,17,98,93,86,30.30,29.93,24,2,25,0.00
2013-2-23,32,29,22,30,22,18,92,75,64,29.96,29.90,16,1,16,0.00
2013-2-24,34,29,21,26,23,18,93,80,66,30.20,29.94,19,-1,19,0.00
2013-2-25,39,31,17,29,23,15,95,74,56,30.27,30.13,12,-14,12,0.00
2013-2-26,34,31,27,32,25,21,97,79,71,30.14,29.63,26,-20,26,0.07
2013-2-28,32,30,28,32,26,24,98,87,84,30.01,29.58,15,-112,15,0.16
2013-3-1,28,25,24,24,20,19,88,83,78,30.16,30.01,14,-8,14,0.00
2013-3-2,25,23,21,20,19,16,88,82,78,30.13,30.09,11,-1,11,0.00
2013-3-3,28,22,15,17,15,12,89,74,57,30.12,30.04,16,-9,16,0.00
2013-3-4,35,24,11,18,14,9,91,68,43,30.20,30.12,9,-10,9,0.01
2013-3-5,35,28,17,25,21,14,89,76,62,30.17,29.87,22,-6,22,0.00
2013-3-6,39,33,25,30,27,22,88,80,67,30.25,29.89,14,-20,14,0.00
2013-3-7,34,30,22,30,24,18,90,79,63,30.44,30.23,10,-77,10,0.00
2013-3-8,44,33,21,28,24,17,88,71,51,30.54,30.44,10,-19,10,0.00
2013-3-9,41,36,27,32,29,23,94,77,65,30.44,30.05,17,1,17,0.00
2013-3-10,61,52,37,47,40,32,83,63,53,30.05,29.81,22,-8,22,0.00
2013-3-11,56,47,36,49,42,32,95,83,60,29.81,29.47,24,-36,24,0.33
2013-3-12,36,32,29,32,28,25,94,85,77,29.95,29.70,22,2,22,0.33
2013-3-13,31,27,23,27,20,14,94,73,55,30.24,29.89,24,-1,24,0.00
2013-3-14,40,31,20,22,19,13,82,62,45,30.31,30.10,16,-4,16,0.00
2013-3-15,38,34,31,34,29,19,96,81,58,30.11,29.89,14,-59,15,0.03
2013-3-16,32,28,26,32,25,21,97,88,77,30.08,29.81,11,-37,12,0.00
2013-3-17,32,25,21,24,16,12,84,68,52,30.31,30.08,17,-25,17,0.00
2013-3-18,26,23,21,22,18,15,86,83,79,30.21,30.03,16,6,16,0.00
2013-3-19,31,27,26,26,19,17,80,73,69,29.97,29.68,25,-198,25,0.00
2013-3-20,26,22,15,18,14,10,83,70,59,29.99,29.93,19,-1,19,0.00
2013-3-21,30,24,14,24,19,11,89,83,72,29.98,29.90,17,-14,21,0.01
2013-3-22,38,30,24,24,21,17,81,69,55,30.06,29.98,17,-8,17,0.00
2013-3-23,36,29,20,25,22,18,94,77,61,30.15,30.05,10,-10,10,0.00
2013-3-24,36,29,20,27,23,18,94,78,59,30.08,29.66,19,-32,19,0.00
2013-3-25,39,34,30,29,26,24,81,73,62,29.96,29.60,20,2,20,0.00
2013-3-26,41,36,31,32,29,26,91,78,62,30.15,29.95,16,1,16,0.00
2013-3-27,45,38,29,31,27,25,91,66,48,30.23,30.14,19,2,19,0.00
2013-3-28,50,40,29,29,26,23,85,58,39,30.30,30.23,20,-8,20,0.00
2013-3-29,53,40,29,26,23,20,75,53,30,30.31,30.22,10,-10,10,0.00
2013-3-30,55,44,24,32,25,17,84,51,25,30.24,29.92,15,-5,15,0.00
2013-3-31,57,46,38,43,35,29,89,65,42,29.92,29.63,20,-24,20,0.01
2013-4-1,38,31,24,30,18,12,82,58,40,30.13,29.71,22,0,22,0.00
2013-4-2,39,31,23,19,15,13,82,54,36,30.29,30.13,21,-6,21,0.00
2013-4-3,43,32,24,18,14,11,71,50,29,30.47,30.28,17,-4,17,0.00
2013-4-4,56,42,26,21,18,13,65,40,22,30.40,29.96,17,-4,17,0.00
2013-4-5,46,40,31,31,21,16,78,49,31,30.23,29.96,15,-4,15,0.00
2013-4-6,50,40,29,30,24,18,81,55,38,30.27,29.77,24,4,24,0.00
2013-4-7,57,49,35,46,37,28,85,64,40,30.05,29.63,27,-2,27,0.00
2013-4-8,65,46,35,56,41,31,93,83,58,30.05,29.72,29,3,33,0.17
2013-4-9,54,47,42,47,43,40,96,88,75,30.09,29.90,16,0,18,0.01
2013-4-10,44,41,37,44,40,37,98,97,93,30.04,29.86,17,-4,20,0.45
2013-4-11,38,37,35,38,36,34,98,96,94,30.02,29.62,34,-4,34,0.75
2013-4-12,41,38,34,39,36,33,98,90,77,29.81,29.59,17,-4,20,0.32
2013-4-13,41,37,35,38,30,26,93,76,62,30.03,29.81,23,-2,23,0.02
2013-4-14,47,39,31,38,33,26,89,79,68,30.15,29.95,19,-7,19,0.04
2013-4-15,67,56,39,56,47,34,93,75,61,29.99,29.88,22,-2,22,0.05
2013-4-16,62,53,46,54,42,34,97,67,44,30.24,29.87,15,-5,16,0.05
2013-4-17,56,47,40,44,37,31,94,70,48,30.35,29.99,25,-1,25,0.89
2013-4-18,77,58,44,66,54,42,95,85,67,30.00,29.58,33,-8,33,0.03
2013-4-28,53,53,53,53,53,53,99,99,99,29.86,29.86,3,-498,33,0.00
2013-4-29,70,63,52,55,54,52,100,75,56,29.95,29.89,13,-7,13,0.01
2013-4-30,73,62,53,58,55,51,95,78,59,30.08,29.94,23,-7,23,0.04
2013-5-1,80,68,53,61,56,51,96,65,44,30.23,30.07,20,-3,20,0.00
2013-5-2,77,67,54,58,51,41,85,59,41,30.24,30.12,22,-6,22,0.00
2013-5-3,75,66,57,58,45,34,62,49,24,30.12,30.05,25,6,25,0.00
2013-5-4,70,62,54,49,43,37,73,50,33,30.12,30.05,23,-4,23,0.00
2013-5-5,71,61,50,46,39,32,73,47,25,30.11,30.02,22,1,22,0.00
2013-5-6,73,61,46,51,44,38,76,55,41,30.07,29.98,17,-4,17,0.00
2013-5-7,74,63,47,55,49,40,92,62,40,30.06,29.99,21,-4,21,0.00
2013-5-8,79,65,51,55,50,46,95,64,33,30.02,29.93,13,-2,13,0.00
2013-5-9,81,67,48,57,51,46,99,61,33,29.97,29.88,11,-2,11,0.00
2013-5-10,68,55,42,62,51,39,98,88,71,29.91,29.74,12,-4,18,0.21
2013-5-11,61,47,38,47,41,33,96,81,50,29.93,29.74,26,-7,26,0.00
2013-5-12,47,40,29,34,29,25,89,67,49,30.13,29.89,26,-5,26,0.00
2013-5-13,54,42,27,33,26,22,95,59,29,30.21,30.12,15,-5,15,0.00
2013-5-14,78,60,43,56,42,30,77,54,39,30.12,29.73,21,-4,21,0.00
2013-5-15,81,70,55,60,51,44,88,53,31,29.79,29.59,20,1,22,0.00
2013-5-16,81,67,45,50,46,40,92,50,28,30.04,29.78,17,-9,17,0.00
2013-5-17,72,61,46,48,44,39,83,55,37,30.15,30.03,16,0,16,0.00
2013-5-18,79,66,53,52,47,43,81,53,33,30.14,30.02,18,-4,18,0.00
2013-5-19,86,70,49,65,58,47,93,69,45,30.04,29.87,13,-5,13,0.00
2013-5-20,90,77,61,71,65,59,96,70,44,29.92,29.75,21,0,21,0.00
2013-5-21,83,76,65,68,64,60,91,68,48,29.81,29.69,19,-8,20,0.00
2013-5-22,79,69,61,66,63,59,98,83,52,29.73,29.60,24,-1,25,0.14
2013-5-23,62,51,41,60,49,40,99,95,86,30.17,29.69,12,-9,14,0.12
2013-5-24,55,45,37,42,37,34,98,75,50,30.38,30.17,15,-5,15,0.00
2013-5-25,66,50,31,43,37,31,99,66,36,30.43,30.31,9,-2,10,0.00
2013-5-26,70,54,33,48,37,31,99,59,28,30.37,30.24,11,-10,11,0.00
2013-5-27,59,50,40,50,44,36,99,83,50,30.28,30.00,18,4,18,0.53
2013-5-28,75,63,50,72,61,50,100,94,77,30.00,29.81,15,3,15,0.53
2013-5-29,81,73,66,69,65,62,94,77,58,29.99,29.76,19,3,19,0.23
2013-5-30,86,72,64,72,66,62,96,81,58,30.05,29.95,17,2,17,0.62
2013-5-31,80,72,67,70,68,65,99,87,68,29.98,29.81,23,3,23,0.62
2013-6-1,78,70,62,68,64,62,99,84,65,29.84,29.67,17,-11,22,0.31
2013-6-2,68,66,62,64,61,59,98,86,74,29.76,29.65,19,-6,19,0.11
2013-6-10,68,66,65,67,66,65,100,98,93,29.78,29.73,5,0,15,0.32
2013-6-11,80,71,62,70,65,62,100,83,60,29.89,29.78,11,-2,12,0.00
2013-6-12,76,68,60,70,66,59,100,92,78,29.93,29.63,17,1,17,0.36
2013-6-13,77,68,59,64,60,56,100,78,50,29.94,29.54,15,-17,15,0.92
2013-6-14,78,65,55,60,56,51,97,74,42,30.08,29.93,8,1,8,0.01
2013-6-15,79,67,51,64,59,50,99,78,54,30.09,29.89,17,-6,17,0.00
2013-6-16,81,69,57,68,62,53,99,79,44,29.89,29.77,16,3,16,0.44
2013-6-17,86,73,56,64,59,54,95,66,39,29.96,29.82,17,-6,17,0.16
2013-6-18,72,62,47,59,52,43,98,73,42,30.08,29.87,12,1,12,0.20
2013-6-19,76,61,42,56,50,42,99,69,39,30.18,30.07,11,-2,11,0.00
2013-6-20,84,68,48,60,54,47,99,65,38,30.22,30.14,11,-6,11,0.00
2013-6-21,86,72,54,68,60,53,99,70,45,30.21,30.04,14,2,14,0.00
2013-6-22,86,76,69,76,68,58,90,76,65,30.08,29.96,14,2,14,0.00
2013-6-23,89,80,68,72,69,65,97,70,51,30.05,29.95,17,-1,17,0.00
2013-6-24,88,77,66,72,69,63,98,76,57,30.04,29.91,12,-22,14,0.20
2013-6-25,84,73,64,74,69,63,99,88,65,29.97,29.81,13,-14,13,1.07
2013-6-26,83,73,64,73,68,64,100,88,66,29.86,29.73,15,2,15,0.11
2013-6-27,84,71,64,74,68,64,100,92,65,29.75,29.61,16,-10,16,1.19
2013-6-28,73,66,63,68,65,63,100,97,81,29.63,29.56,10,-29,10,0.03
2013-7-13,83,76,65,66,64,59,97,70,46,30.22,30.15,11,2,11,0.00
2013-7-14,89,77,61,74,69,60,99,77,54,30.25,30.19,10,-2,11,0.00
2013-7-15,92,79,67,78,73,66,100,84,59,30.28,30.20,8,1,9,0.00
2013-7-16,92,82,73,80,76,72,99,82,62,30.29,30.22,6,-6,8,0.00
2013-7-17,93,81,69,80,75,69,100,83,61,30.27,30.13,11,-13,11,0.00
2013-7-18,92,83,70,78,74,68,99,77,50,30.14,29.94,14,-6,14,0.00
2013-7-19,92,84,70,77,74,67,97,73,54,29.94,29.69,29,-3,29,0.29
2013-7-20,86,76,65,70,66,60,99,75,47,29.91,29.70,20,-6,20,0.30
2013-7-21,85,72,59,68,63,57,98,75,50,30.00,29.91,6,-7,6,0.00
2013-7-22,83,73,66,70,67,64,95,81,59,29.94,29.75,14,-6,14,0.00
2013-7-23,81,70,59,73,65,52,98,85,69,29.89,29.66,12,-2,12,1.21
2013-7-24,72,62,52,57,53,49,96,73,51,30.06,29.89,11,-3,11,0.00
2013-7-25,78,64,47,60,54,47,100,72,43,30.12,30.06,9,-3,9,0.00
2013-7-26,78,69,54,63,59,52,98,73,50,30.10,29.90,12,-6,12,0.02
2013-7-27,71,63,53,66,61,51,100,93,80,29.90,29.73,15,-6,15,1.15
2013-7-28,66,57,49,56,52,48,98,86,67,30.00,29.83,17,-1,17,0.01
2013-7-29,69,60,53,59,55,52,98,84,64,30.20,29.98,13,-6,13,0.00
2013-7-30,80,66,48,65,58,47,100,78,48,30.25,30.12,9,-3,9,0.00
2013-7-31,75,68,62,68,65,61,98,92,74,30.12,29.88,14,-6,14,0.30
2013-8-1,77,68,62,65,63,59,98,86,56,29.92,29.87,10,-13,13,0.00
2013-8-2,72,66,53,65,61,52,99,86,67,29.93,29.85,16,-7,16,0.01
2013-8-3,79,68,57,64,59,53,100,75,45,30.06,29.92,9,-6,10,0.00
2013-8-4,74,63,54,60,55,52,96,78,52,30.16,30.06,8,-6,11,0.00
2013-8-5,72,63,50,61,56,49,98,79,55,30.12,29.97,9,1,10,0.00
2013-8-6,78,69,62,69,64,59,95,85,67,29.97,29.89,12,-9,12,0.01
2013-8-7,83,72,65,74,68,63,99,89,71,29.93,29.81,16,-2,16,0.20
2013-8-8,77,69,62,69,64,59,95,83,63,30.01,29.89,10,-15,10,0.00
2013-8-9,80,69,56,64,60,56,99,75,47,30.02,29.94,13,-6,13,0.00
2013-8-10,79,68,59,64,60,57,100,79,54,30.13,30.02,8,-7,8,0.00
2013-8-11,78,68,54,64,60,53,99,78,53,30.12,30.03,9,-3,12,0.00
2013-8-12,72,65,62,69,64,60,99,95,86,30.06,29.85,9,-7,9,1.06
2013-8-13,67,60,51,64,52,46,99,77,56,30.08,29.83,14,-10,15,0.00
2013-8-14,71,58,48,57,50,45,97,78,50,30.18,30.08,8,-10,8,0.00
2013-8-15,75,61,45,59,52,45,100,77,47,30.19,30.10,8,-11,9,0.00
2013-8-16,80,65,50,62,56,50,99,75,44,30.22,30.13,6,-3,6,0.00
2013-8-17,80,66,50,63,57,50,100,76,41,30.28,30.19,12,-2,12,0.00
2013-8-18,83,68,53,66,59,52,99,76,45,30.23,30.11,10,-7,10,0.00
2013-8-19,82,68,54,66,59,52,99,76,43,30.12,30.04,12,-3,12,0.00
2013-8-20,86,72,56,70,64,56,99,78,52,30.14,30.07,10,-7,11,0.00
2013-8-21,86,75,63,72,68,62,97,78,61,30.13,29.98,13,-6,13,0.00
2013-8-22,78,72,69,69,67,66,91,85,70,30.03,29.93,17,2,17,0.00
2013-9-1,82,75,70,74,71,68,97,87,72,29.79,29.71,9,1,10,0.00
2013-9-2,75,67,58,70,61,52,97,80,63,29.92,29.71,14,-5,14,0.00
2013-9-3,74,63,56,59,55,51,96,75,53,30.03,29.91,11,-6,11,0.00
2013-9-4,79,67,52,64,60,51,100,78,55,30.09,30.01,15,-5,15,0.00
2013-9-5,71,61,49,62,52,48,94,74,48,30.27,30.08,9,-7,9,0.00
2013-9-6,76,62,42,58,50,42,99,70,39,30.29,30.07,9,-3,9,0.00
2013-9-7,80,69,56,71,62,48,96,80,65,30.08,29.89,14,-10,14,0.04
2013-9-8,73,66,53,67,59,50,95,77,56,30.08,29.92,12,-2,12,0.04
2013-9-9,76,64,50,72,62,49,98,93,84,30.07,29.89,10,-6,10,0.18
2013-9-10,92,81,70,75,71,67,97,73,45,30.00,29.88,16,-9,17,0.00
2013-9-11,90,77,67,75,70,65,100,80,58,30.01,29.88,28,-6,30,0.32
2013-9-12,77,66,54,67,59,46,100,81,49,29.97,29.83,18,-6,18,0.06
2013-9-13,58,52,39,48,45,38,97,78,61,30.16,29.96,10,-9,11,0.00
2013-9-14,68,53,37,52,43,36,99,74,39,30.22,30.11,11,-11,11,0.00
2013-9-15,62,55,45,56,51,43,98,87,67,30.15,30.07,4,-11,9,0.08
2013-9-16,62,54,41,53,48,40,98,84,59,30.39,30.14,9,-3,9,0.00
2013-9-17,66,52,35,52,45,35,99,81,48,30.43,30.22,14,-2,14,0.00
2013-9-18,75,61,43,60,53,42,99,78,47,30.23,30.05,12,-10,14,0.00
2013-9-19,79,69,57,70,65,56,99,87,71,30.05,29.89,12,-10,12,0.00
2013-9-20,79,71,64,72,68,63,99,91,74,29.89,29.71,14,-6,15,0.24
2013-9-21,67,61,52,64,54,44,99,79,53,29.89,29.68,16,-10,16,0.03
2013-9-22,58,51,39,45,43,38,97,75,60,30.10,29.89,14,-10,14,0.00
2013-9-23,62,49,37,49,43,37,100,82,55,30.22,30.10,11,-7,11,0.00
2013-9-24,67,53,39,52,47,38,100,82,57,30.17,30.01,12,-3,12,0.00
2013-9-25,70,55,43,58,50,42,100,84,54,30.02,29.96,14,-10,14,0.00
2013-9-26,76,58,40,58,49,40,100,77,40,30.16,30.02,11,-7,11,0.00
2013-9-27,74,60,43,59,53,42,99,80,52,30.24,30.16,14,-13,14,0.00
2013-9-28,76,63,48,62,56,48,100,79,48,30.21,30.02,15,-5,15,0.00
2013-9-29,62,60,57,62,58,53,99,93,78,30.02,29.96,9,-18,9,0.16
2013-9-30,70,62,52,59,55,50,100,80,52,30.02,29.93,12,-14,12,0.00
2013-10-1,71,62,48,64,59,48,100,91,76,30.02,29.94,12,-6,17,0.01
2013-10-2,79,65,51,61,54,47,99,72,33,30.08,29.95,8,-7,8,0.00
2013-10-3,77,66,51,68,62,50,97,88,73,30.06,29.93,15,-6,15,0.00
2013-10-4,79,70,64,69,66,62,97,87,69,30.02,29.93,8,-14,13,0.00
2013-10-5,73,68,62,70,66,62,100,95,85,30.02,29.83,13,-1,13,0.17
2013-10-6,69,63,52,68,62,52,100,96,86,29.83,29.61,24,-6,27,0.25
2013-10-7,58,50,40,53,46,39,99,87,66,30.15,29.68,19,-9,19,0.01
2013-10-8,67,54,39,51,44,39,100,74,46,30.30,30.15,13,-2,13,0.00
2013-10-9,69,55,41,56,47,40,99,78,47,30.33,30.23,14,-10,17,0.00
2013-10-10,71,55,40,57,46,39,100,76,40,30.24,30.14,12,-10,12,0.00
2013-10-11,72,55,38,54,46,37,100,76,43,30.17,30.08,10,-7,11,0.00
2013-10-12,76,62,45,62,55,44,100,81,44,30.11,30.04,11,-1,16,0.00
2013-10-13,66,58,44,59,46,39,99,70,38,30.36,30.10,13,-10,13,0.00
2013-10-14,64,51,41,46,43,40,99,76,48,30.42,30.27,9,-3,11,0.00
2013-10-15,63,55,38,61,53,37,100,93,83,30.27,29.83,17,-8,17,0.05
2013-10-16,61,54,50,60,49,45,98,83,68,29.92,29.83,14,-8,21,0.00
2013-10-17,50,49,46,49,47,44,97,93,88,29.91,29.76,17,-6,17,0.27
2013-10-18,61,52,40,48,43,40,97,74,47,29.93,29.86,24,-5,24,0.01
2013-10-19,46,42,37,44,40,36,98,93,85,29.90,29.76,23,-6,23,0.16
2013-10-20,58,49,38,46,41,36,96,76,52,29.94,29.85,16,-9,16,0.02
2013-10-21,54,48,40,48,42,34,92,81,67,29.87,29.80,18,-5,18,0.06
2013-10-22,48,42,32,34,32,28,86,67,52,29.93,29.87,21,-9,21,0.00
2013-10-23,46,38,31,37,31,26,97,77,46,29.96,29.84,18,-6,18,0.00
2013-10-24,46,38,31,34,31,27,94,79,47,30.22,29.95,14,-4,20,0.00
2013-10-25,45,38,31,36,31,28,95,75,59,30.35,30.10,15,-5,15,0.00
2013-10-26,49,42,34,39,34,28,96,75,59,30.10,29.80,24,0,24,0.06
2013-10-27,52,42,32,36,33,29,95,70,48,30.09,30.00,15,-2,15,0.00
2013-10-28,50,41,32,40,35,29,94,78,67,30.43,30.08,9,-7,10,0.00
2013-10-29,50,43,34,38,35,30,90,74,61,30.46,30.25,11,-16,11,0.00
2013-10-30,63,50,32,52,43,30,99,77,52,30.25,29.93,14,-6,14,0.15
2013-10-31,60,58,52,59,57,52,99,97,95,29.94,29.35,21,-8,21,0.93
2013-11-1,50,46,44,43,41,40,92,83,72,29.68,29.49,25,-11,25,0.94
2013-11-2,46,42,31,44,39,30,97,90,82,30.14,29.67,13,-7,13,0.05
2013-11-3,43,36,29,37,32,29,97,85,68,30.49,30.14,12,-6,12,0.05
2013-11-4,48,42,33,37,32,28,89,71,48,30.50,30.32,22,-2,22,0.00
2013-11-5,53,50,43,48,45,37,90,82,73,30.38,30.15,12,-2,12,0.00
2013-11-6,55,50,41,52,47,38,94,89,73,30.15,29.79,23,-22,23,0.07
2013-11-7,44,38,32,34,29,26,95,73,55,30.16,30.09,21,-4,21,0.07
2013-11-8,44,36,31,31,28,25,94,73,50,30.31,30.15,15,-6,15,0.04
2013-11-9,55,48,36,42,38,30,92,68,57,30.19,29.82,33,-1,33,0.01
2013-11-10,46,41,32,40,31,28,92,69,57,30.29,29.91,27,-10,27,0.01
2013-11-11,42,34,26,38,30,21,95,86,75,30.37,30.05,17,-9,17,0.18
2013-11-12,32,28,18,22,19,14,86,69,56,30.58,30.37,17,0,17,0.00
2013-11-13,40,31,18,25,18,10,90,60,30,30.58,30.19,23,2,24,0.00
2013-11-14,51,41,30,28,24,18,68,50,37,30.20,30.01,21,-3,21,0.00
2013-11-15,51,44,36,31,29,24,71,56,46,30.09,30.01,18,-1,18,0.00
2013-11-16,56,50,36,53,46,30,91,85,71,30.11,29.77,21,-4,21,0.01
2013-11-17,62,56,46,60,53,39,96,89,72,29.78,29.23,42,5,43,0.51
2013-11-18,46,37,33,40,28,24,79,71,65,30.17,29.52,30,0,33,0.00
2013-11-19,41,36,31,25,22,20,69,58,48,30.40,30.17,14,-13,17,0.00
2013-11-27,26,22,17,15,13,10,78,67,54,30.25,29.99,21,6,21,0.00
2013-11-28,27,22,15,21,16,11,90,78,66,30.48,30.25,13,-3,13,0.00
2013-11-29,34,25,13,24,19,11,94,78,54,30.71,30.48,14,-7,14,0.00
2013-11-30,45,36,27,29,27,21,83,70,54,30.57,30.11,13,-5,16,0.00
2013-12-1,42,36,30,35,31,26,94,84,72,30.11,30.01,10,-7,10,0.00
2013-12-2,38,32,24,31,24,20,93,73,55,30.01,29.92,8,-14,8,0.00
2013-12-3,37,34,25,36,32,21,96,93,85,29.95,29.87,14,-9,15,0.04
2013-12-4,58,49,37,55,47,36,97,92,89,29.92,29.62,19,-4,19,0.01
2013-12-5,57,36,29,54,28,22,92,73,65,30.18,29.61,24,-3,24,0.00
2013-12-6,29,24,19,22,16,12,77,72,68,30.45,30.14,14,-10,14,0.00
2013-12-7,23,18,10,12,10,6,87,69,57,30.67,30.45,10,-15,17,0.00
2013-12-8,28,21,8,27,17,6,95,84,69,30.64,29.99,20,-8,20,0.00
2013-12-9,28,24,18,27,18,10,95,80,70,30.13,29.94,21,-12,28,0.00
2013-12-10,20,18,9,15,9,1,84,70,48,30.25,29.99,25,-2,25,0.00
2013-12-11,21,15,4,18,9,-1,89,77,67,30.51,30.25,17,-9,17,0.00
2013-12-12,9,3,1,6,0,-3,87,85,83,30.50,30.45,5,-137,5,0.00
2013-12-15,17,17,17,15,15,15,93,93,93,29.80,29.78,0,-999,0,0.00
2013-12-19,40,38,36,34,33,32,85,81,77,29.98,29.93,4,-606,4,0.10
2013-12-21,32,32,32,32,32,32,99,99,99,29.81,29.80,3,-498,3,0.36
2013-12-22,35,33,32,34,32,31,96,95,94,29.98,29.80,6,-586,6,0.00